sensor_id;sensor_type;location;lat;lon;timestamp;P1;durP1;ratioP1;P2;durP2;ratioP2
18125;SDS011;53956;52.442;13.284;2022-08-05T00:01:50;7.95;;;4.97;;
18125;SDS011;53956;52.442;13.284;2022-08-05T00:04:17;7.72;;;5.20;;
18125;SDS011;53956;52.442;13.284;2022-08-05T00:06:45;6.50;;;4.72;;
18125;SDS011;53956;52.442;13.284;2022-08-05T00:09:12;5.10;;;4.60;;
18125;SDS011;53956;52.442;13.284;2022-08-05T00:11:38;6.80;;;4.65;;
18125;SDS011;53956;52.442;13.284;2022-08-05T00:14:05;7.65;;;4.63;;
18125;SDS011;53956;52.442;13.284;2022-08-05T00:16:32;5.93;;;4.80;;
18125;SDS011;53956;52.442;13.284;2022-08-05T00:18:58;6.25;;;4.95;;
18125;SDS011;53956;52.442;13.284;2022-08-05T00:21:25;5.60;;;4.88;;
18125;SDS011;53956;52.442;13.284;2022-08-05T00:23:53;6.15;;;4.88;;
18125;SDS011;53956;52.442;13.284;2022-08-05T00:26:20;6.90;;;4.88;;
18125;SDS011;53956;52.442;13.284;2022-08-05T00:28:47;7.95;;;4.82;;
18125;SDS011;53956;52.442;13.284;2022-08-05T00:31:13;7.63;;;5.07;;
18125;SDS011;53956;52.442;13.284;2022-08-05T00:33:40;7.38;;;4.80;;
18125;SDS011;53956;52.442;13.284;2022-08-05T00:36:07;6.68;;;4.82;;
18125;SDS011;53956;52.442;13.284;2022-08-05T00:38:34;6.60;;;4.85;;
18125;SDS011;53956;52.442;13.284;2022-08-05T00:41:02;5.00;;;4.50;;
18125;SDS011;53956;52.442;13.284;2022-08-05T00:43:31;6.50;;;5.18;;
18125;SDS011;53956;52.442;13.284;2022-08-05T00:45:58;5.75;;;4.80;;
18125;SDS011;53956;52.442;13.284;2022-08-05T00:48:25;8.27;;;4.70;;
18125;SDS011;53956;52.442;13.284;2022-08-05T00:50:51;12.75;;;4.57;;
18125;SDS011;53956;52.442;13.284;2022-08-05T00:53:19;6.10;;;4.78;;
18125;SDS011;53956;52.442;13.284;2022-08-05T00:55:47;8.82;;;5.20;;
18125;SDS011;53956;52.442;13.284;2022-08-05T00:58:16;9.45;;;5.45;;
18125;SDS011;53956;52.442;13.284;2022-08-05T01:00:43;14.90;;;7.20;;
18125;SDS011;53956;52.442;13.284;2022-08-05T01:03:11;9.68;;;6.13;;
18125;SDS011;53956;52.442;13.284;2022-08-05T01:05:38;12.95;;;7.07;;
18125;SDS011;53956;52.442;13.284;2022-08-05T01:08:05;13.82;;;7.65;;
18125;SDS011;53956;52.442;13.284;2022-08-05T01:10:34;15.25;;;9.45;;
18125;SDS011;53956;52.442;13.284;2022-08-05T01:13:06;20.20;;;11.27;;
18125;SDS011;53956;52.442;13.284;2022-08-05T01:15:41;32.03;;;17.00;;
18125;SDS011;53956;52.442;13.284;2022-08-05T01:18:12;37.35;;;19.38;;
18125;SDS011;53956;52.442;13.284;2022-08-05T01:20:53;33.67;;;18.00;;
18125;SDS011;53956;52.442;13.284;2022-08-05T01:23:33;30.55;;;15.57;;
18125;SDS011;53956;52.442;13.284;2022-08-05T01:26:17;26.08;;;14.18;;
18125;SDS011;53956;52.442;13.284;2022-08-05T01:28:57;22.70;;;12.15;;
18125;SDS011;53956;52.442;13.284;2022-08-05T01:31:27;18.27;;;10.60;;
18125;SDS011;53956;52.442;13.284;2022-08-05T01:34:00;16.15;;;9.15;;
18125;SDS011;53956;52.442;13.284;2022-08-05T01:36:33;16.73;;;8.88;;
18125;SDS011;53956;52.442;13.284;2022-08-05T01:39:05;17.15;;;8.15;;
18125;SDS011;53956;52.442;13.284;2022-08-05T01:41:33;11.82;;;7.47;;
18125;SDS011;53956;52.442;13.284;2022-08-05T01:44:03;12.35;;;7.40;;
18125;SDS011;53956;52.442;13.284;2022-08-05T01:46:32;9.57;;;6.05;;
18125;SDS011;53956;52.442;13.284;2022-08-05T01:49:00;10.70;;;6.10;;
18125;SDS011;53956;52.442;13.284;2022-08-05T01:51:29;10.27;;;6.28;;
18125;SDS011;53956;52.442;13.284;2022-08-05T01:53:59;8.32;;;5.93;;
18125;SDS011;53956;52.442;13.284;2022-08-05T01:56:28;9.90;;;6.18;;
18125;SDS011;53956;52.442;13.284;2022-08-05T01:58:57;9.10;;;6.10;;
18125;SDS011;53956;52.442;13.284;2022-08-05T02:01:28;9.38;;;5.53;;
18125;SDS011;53956;52.442;13.284;2022-08-05T02:03:57;11.48;;;5.85;;
18125;SDS011;53956;52.442;13.284;2022-08-05T02:06:24;12.35;;;5.90;;
18125;SDS011;53956;52.442;13.284;2022-08-05T02:08:52;6.28;;;5.68;;
18125;SDS011;53956;52.442;13.284;2022-08-05T02:11:19;6.25;;;5.25;;
18125;SDS011;53956;52.442;13.284;2022-08-05T02:13:50;9.30;;;5.97;;
18125;SDS011;53956;52.442;13.284;2022-08-05T02:16:24;8.77;;;5.78;;
18125;SDS011;53956;52.442;13.284;2022-08-05T02:18:55;9.13;;;5.97;;
18125;SDS011;53956;52.442;13.284;2022-08-05T02:21:27;11.02;;;6.25;;
18125;SDS011;53956;52.442;13.284;2022-08-05T02:23:58;8.90;;;5.70;;
18125;SDS011;53956;52.442;13.284;2022-08-05T02:26:32;11.65;;;6.10;;
18125;SDS011;53956;52.442;13.284;2022-08-05T02:29:03;9.50;;;6.15;;
18125;SDS011;53956;52.442;13.284;2022-08-05T02:31:33;13.48;;;5.70;;
18125;SDS011;53956;52.442;13.284;2022-08-05T02:34:04;10.73;;;5.88;;
18125;SDS011;53956;52.442;13.284;2022-08-05T02:36:34;9.73;;;5.50;;
18125;SDS011;53956;52.442;13.284;2022-08-05T02:39:04;9.15;;;6.07;;
18125;SDS011;53956;52.442;13.284;2022-08-05T02:41:33;11.63;;;5.82;;
18125;SDS011;53956;52.442;13.284;2022-08-05T02:44:00;10.23;;;5.65;;
18125;SDS011;53956;52.442;13.284;2022-08-05T02:46:31;8.02;;;5.35;;
18125;SDS011;53956;52.442;13.284;2022-08-05T02:48:58;10.13;;;6.10;;
18125;SDS011;53956;52.442;13.284;2022-08-05T02:51:27;10.27;;;5.32;;
18125;SDS011;53956;52.442;13.284;2022-08-05T02:53:54;10.70;;;5.40;;
18125;SDS011;53956;52.442;13.284;2022-08-05T02:56:22;7.95;;;5.30;;
18125;SDS011;53956;52.442;13.284;2022-08-05T02:58:51;9.18;;;5.32;;
18125;SDS011;53956;52.442;13.284;2022-08-05T03:01:19;10.38;;;5.10;;
18125;SDS011;53956;52.442;13.284;2022-08-05T03:03:51;9.98;;;5.25;;
18125;SDS011;53956;52.442;13.284;2022-08-05T03:06:20;7.15;;;4.88;;
18125;SDS011;53956;52.442;13.284;2022-08-05T03:08:49;8.98;;;4.70;;
18125;SDS011;53956;52.442;13.284;2022-08-05T03:11:17;14.77;;;5.10;;
18125;SDS011;53956;52.442;13.284;2022-08-05T03:13:45;9.48;;;4.80;;
18125;SDS011;53956;52.442;13.284;2022-08-05T03:16:11;11.80;;;4.63;;
18125;SDS011;53956;52.442;13.284;2022-08-05T03:18:38;9.73;;;4.70;;
18125;SDS011;53956;52.442;13.284;2022-08-05T03:21:05;6.10;;;4.10;;
18125;SDS011;53956;52.442;13.284;2022-08-05T03:23:32;6.05;;;4.30;;
18125;SDS011;53956;52.442;13.284;2022-08-05T03:26:01;7.18;;;4.40;;
18125;SDS011;53956;52.442;13.284;2022-08-05T03:28:29;8.20;;;4.38;;
18125;SDS011;53956;52.442;13.284;2022-08-05T03:30:57;10.40;;;4.60;;
18125;SDS011;53956;52.442;13.284;2022-08-05T03:33:25;7.25;;;4.63;;
18125;SDS011;53956;52.442;13.284;2022-08-05T03:35:53;8.00;;;4.20;;
18125;SDS011;53956;52.442;13.284;2022-08-05T03:38:21;5.10;;;4.10;;
18125;SDS011;53956;52.442;13.284;2022-08-05T03:40:48;7.15;;;4.60;;
18125;SDS011;53956;52.442;13.284;2022-08-05T03:43:18;5.95;;;4.60;;
18125;SDS011;53956;52.442;13.284;2022-08-05T03:45:45;7.57;;;4.30;;
18125;SDS011;53956;52.442;13.284;2022-08-05T03:48:12;7.18;;;4.20;;
18125;SDS011;53956;52.442;13.284;2022-08-05T03:50:41;5.68;;;4.15;;
18125;SDS011;53956;52.442;13.284;2022-08-05T03:53:11;7.40;;;4.40;;
18125;SDS011;53956;52.442;13.284;2022-08-05T03:55:43;6.65;;;4.38;;
18125;SDS011;53956;52.442;13.284;2022-08-05T03:58:15;6.88;;;4.30;;
18125;SDS011;53956;52.442;13.284;2022-08-05T04:00:45;8.15;;;4.63;;
18125;SDS011;53956;52.442;13.284;2022-08-05T04:03:14;5.53;;;4.07;;
18125;SDS011;53956;52.442;13.284;2022-08-05T04:05:42;4.70;;;4.07;;
18125;SDS011;53956;52.442;13.284;2022-08-05T04:08:09;7.00;;;4.60;;
18125;SDS011;53956;52.442;13.284;2022-08-05T04:10:37;5.85;;;4.90;;
18125;SDS011;53956;52.442;13.284;2022-08-05T04:13:05;7.55;;;4.80;;
18125;SDS011;53956;52.442;13.284;2022-08-05T04:15:32;9.07;;;4.38;;
18125;SDS011;53956;52.442;13.284;2022-08-05T04:18:01;5.82;;;4.13;;
18125;SDS011;53956;52.442;13.284;2022-08-05T04:20:29;10.07;;;4.60;;
18125;SDS011;53956;52.442;13.284;2022-08-05T04:22:55;7.97;;;4.65;;
18125;SDS011;53956;52.442;13.284;2022-08-05T04:25:22;8.43;;;4.53;;
18125;SDS011;53956;52.442;13.284;2022-08-05T04:27:49;7.53;;;4.15;;
18125;SDS011;53956;52.442;13.284;2022-08-05T04:30:15;7.25;;;4.05;;
18125;SDS011;53956;52.442;13.284;2022-08-05T04:32:42;10.63;;;4.13;;
18125;SDS011;53956;52.442;13.284;2022-08-05T04:35:10;5.50;;;4.38;;
18125;SDS011;53956;52.442;13.284;2022-08-05T04:37:36;9.88;;;4.30;;
18125;SDS011;53956;52.442;13.284;2022-08-05T04:40:04;9.57;;;4.50;;
18125;SDS011;53956;52.442;13.284;2022-08-05T04:42:31;7.18;;;4.57;;
18125;SDS011;53956;52.442;13.284;2022-08-05T04:44:58;8.32;;;4.78;;
18125;SDS011;53956;52.442;13.284;2022-08-05T04:47:24;9.25;;;4.60;;
18125;SDS011;53956;52.442;13.284;2022-08-05T04:49:51;8.93;;;4.18;;
18125;SDS011;53956;52.442;13.284;2022-08-05T04:52:19;7.70;;;4.97;;
18125;SDS011;53956;52.442;13.284;2022-08-05T04:54:45;7.25;;;4.88;;
18125;SDS011;53956;52.442;13.284;2022-08-05T04:57:12;5.82;;;4.32;;
18125;SDS011;53956;52.442;13.284;2022-08-05T04:59:38;5.00;;;4.30;;
18125;SDS011;53956;52.442;13.284;2022-08-05T05:02:05;5.65;;;4.90;;
18125;SDS011;53956;52.442;13.284;2022-08-05T05:04:32;5.95;;;4.70;;
18125;SDS011;53956;52.442;13.284;2022-08-05T05:06:59;8.18;;;4.70;;
18125;SDS011;53956;52.442;13.284;2022-08-05T05:09:27;6.15;;;4.75;;
18125;SDS011;53956;52.442;13.284;2022-08-05T05:11:53;8.55;;;4.50;;
18125;SDS011;53956;52.442;13.284;2022-08-05T05:14:20;8.18;;;4.90;;
18125;SDS011;53956;52.442;13.284;2022-08-05T05:16:47;5.80;;;4.05;;
18125;SDS011;53956;52.442;13.284;2022-08-05T05:19:13;8.00;;;4.95;;
18125;SDS011;53956;52.442;13.284;2022-08-05T05:21:40;10.35;;;4.80;;
18125;SDS011;53956;52.442;13.284;2022-08-05T05:24:07;6.70;;;4.30;;
18125;SDS011;53956;52.442;13.284;2022-08-05T05:26:35;5.93;;;4.53;;
18125;SDS011;53956;52.442;13.284;2022-08-05T05:29:01;9.77;;;5.00;;
18125;SDS011;53956;52.442;13.284;2022-08-05T05:31:28;5.70;;;4.68;;
18125;SDS011;53956;52.442;13.284;2022-08-05T05:33:55;7.18;;;4.40;;
18125;SDS011;53956;52.442;13.284;2022-08-05T05:36:22;5.93;;;4.43;;
18125;SDS011;53956;52.442;13.284;2022-08-05T05:38:49;8.00;;;4.32;;
18125;SDS011;53956;52.442;13.284;2022-08-05T05:41:16;4.95;;;4.20;;
18125;SDS011;53956;52.442;13.284;2022-08-05T05:43:43;4.85;;;4.22;;
18125;SDS011;53956;52.442;13.284;2022-08-05T05:46:10;9.00;;;4.22;;
18125;SDS011;53956;52.442;13.284;2022-08-05T05:48:37;6.93;;;4.63;;
18125;SDS011;53956;52.442;13.284;2022-08-05T05:51:05;9.07;;;4.68;;
18125;SDS011;53956;52.442;13.284;2022-08-05T05:53:32;6.03;;;4.28;;
18125;SDS011;53956;52.442;13.284;2022-08-05T05:55:58;6.32;;;4.75;;
18125;SDS011;53956;52.442;13.284;2022-08-05T05:58:25;7.85;;;5.00;;
18125;SDS011;53956;52.442;13.284;2022-08-05T06:00:53;13.95;;;9.23;;
18125;SDS011;53956;52.442;13.284;2022-08-05T06:03:20;17.15;;;8.70;;
18125;SDS011;53956;52.442;13.284;2022-08-05T06:05:47;21.92;;;11.88;;
18125;SDS011;53956;52.442;13.284;2022-08-05T06:08:14;24.52;;;12.57;;
18125;SDS011;53956;52.442;13.284;2022-08-05T06:10:41;17.42;;;10.48;;
18125;SDS011;53956;52.442;13.284;2022-08-05T06:13:07;13.05;;;7.70;;
18125;SDS011;53956;52.442;13.284;2022-08-05T06:15:34;11.70;;;6.05;;
18125;SDS011;53956;52.442;13.284;2022-08-05T06:18:02;6.78;;;4.95;;
18125;SDS011;53956;52.442;13.284;2022-08-05T06:20:29;8.77;;;4.88;;
18125;SDS011;53956;52.442;13.284;2022-08-05T06:22:56;9.55;;;5.32;;
18125;SDS011;53956;52.442;13.284;2022-08-05T06:25:23;10.52;;;5.80;;
18125;SDS011;53956;52.442;13.284;2022-08-05T06:27:50;7.15;;;4.93;;
18125;SDS011;53956;52.442;13.284;2022-08-05T06:30:17;5.15;;;4.18;;
18125;SDS011;53956;52.442;13.284;2022-08-05T06:32:44;5.43;;;4.22;;
18125;SDS011;53956;52.442;13.284;2022-08-05T06:35:12;6.60;;;4.00;;
18125;SDS011;53956;52.442;13.284;2022-08-05T06:37:39;9.00;;;4.07;;
18125;SDS011;53956;52.442;13.284;2022-08-05T06:40:06;8.27;;;3.80;;
18125;SDS011;53956;52.442;13.284;2022-08-05T06:42:33;6.80;;;4.25;;
18125;SDS011;53956;52.442;13.284;2022-08-05T06:45:00;5.85;;;3.35;;
18125;SDS011;53956;52.442;13.284;2022-08-05T06:47:26;6.95;;;2.95;;
18125;SDS011;53956;52.442;13.284;2022-08-05T06:49:53;4.03;;;2.90;;
18125;SDS011;53956;52.442;13.284;2022-08-05T06:52:21;6.15;;;3.05;;
18125;SDS011;53956;52.442;13.284;2022-08-05T06:54:48;5.75;;;3.10;;
18125;SDS011;53956;52.442;13.284;2022-08-05T06:57:14;4.13;;;3.05;;
18125;SDS011;53956;52.442;13.284;2022-08-05T06:59:42;5.25;;;3.00;;
18125;SDS011;53956;52.442;13.284;2022-08-05T07:02:09;4.35;;;3.10;;
18125;SDS011;53956;52.442;13.284;2022-08-05T07:04:36;7.07;;;2.95;;
18125;SDS011;53956;52.442;13.284;2022-08-05T07:07:02;3.55;;;3.00;;
18125;SDS011;53956;52.442;13.284;2022-08-05T07:09:30;7.72;;;3.05;;
18125;SDS011;53956;52.442;13.284;2022-08-05T07:11:57;5.22;;;3.08;;
18125;SDS011;53956;52.442;13.284;2022-08-05T07:14:24;7.15;;;3.28;;
18125;SDS011;53956;52.442;13.284;2022-08-05T07:17:19;4.85;;;2.90;;
18125;SDS011;53956;52.442;13.284;2022-08-05T07:19:46;5.57;;;3.30;;
18125;SDS011;53956;52.442;13.284;2022-08-05T07:22:14;4.75;;;3.20;;
18125;SDS011;53956;52.442;13.284;2022-08-05T07:24:42;6.38;;;3.03;;
18125;SDS011;53956;52.442;13.284;2022-08-05T07:27:09;4.82;;;3.10;;
18125;SDS011;53956;52.442;13.284;2022-08-05T07:29:35;6.82;;;3.25;;
18125;SDS011;53956;52.442;13.284;2022-08-05T07:32:02;3.85;;;3.15;;
18125;SDS011;53956;52.442;13.284;2022-08-05T07:34:29;4.25;;;3.15;;
18125;SDS011;53956;52.442;13.284;2022-08-05T07:36:56;4.72;;;3.13;;
18125;SDS011;53956;52.442;13.284;2022-08-05T07:39:22;5.47;;;3.10;;
18125;SDS011;53956;52.442;13.284;2022-08-05T07:41:50;4.68;;;3.20;;
18125;SDS011;53956;52.442;13.284;2022-08-05T07:44:17;7.25;;;3.40;;
18125;SDS011;53956;52.442;13.284;2022-08-05T07:46:43;7.25;;;3.92;;
18125;SDS011;53956;52.442;13.284;2022-08-05T07:49:10;5.70;;;3.35;;
18125;SDS011;53956;52.442;13.284;2022-08-05T07:51:37;4.45;;;3.38;;
18125;SDS011;53956;52.442;13.284;2022-08-05T07:54:04;5.38;;;3.42;;
18125;SDS011;53956;52.442;13.284;2022-08-05T07:56:31;6.20;;;3.40;;
18125;SDS011;53956;52.442;13.284;2022-08-05T07:58:59;4.80;;;3.20;;
18125;SDS011;53956;52.442;13.284;2022-08-05T08:01:25;5.10;;;3.40;;
18125;SDS011;53956;52.442;13.284;2022-08-05T08:03:52;6.88;;;3.42;;
18125;SDS011;53956;52.442;13.284;2022-08-05T08:06:19;8.13;;;3.78;;
18125;SDS011;53956;52.442;13.284;2022-08-05T08:08:45;8.13;;;3.60;;
18125;SDS011;53956;52.442;13.284;2022-08-05T08:11:12;8.60;;;5.03;;
18125;SDS011;53956;52.442;13.284;2022-08-05T08:13:39;5.97;;;3.90;;
18125;SDS011;53956;52.442;13.284;2022-08-05T08:16:08;5.28;;;3.63;;
18125;SDS011;53956;52.442;13.284;2022-08-05T08:18:34;6.03;;;3.65;;
18125;SDS011;53956;52.442;13.284;2022-08-05T08:21:01;5.35;;;3.92;;
18125;SDS011;53956;52.442;13.284;2022-08-05T08:23:27;7.70;;;3.50;;
18125;SDS011;53956;52.442;13.284;2022-08-05T08:25:54;7.07;;;3.80;;
18125;SDS011;53956;52.442;13.284;2022-08-05T08:28:21;8.73;;;3.72;;
18125;SDS011;53956;52.442;13.284;2022-08-05T08:30:47;5.70;;;3.67;;
18125;SDS011;53956;52.442;13.284;2022-08-05T08:33:15;5.63;;;3.10;;
18125;SDS011;53956;52.442;13.284;2022-08-05T08:35:42;9.60;;;4.10;;
18125;SDS011;53956;52.442;13.284;2022-08-05T08:38:09;4.95;;;3.42;;
18125;SDS011;53956;52.442;13.284;2022-08-05T08:40:37;6.43;;;3.70;;
18125;SDS011;53956;52.442;13.284;2022-08-05T08:43:04;6.20;;;4.13;;
18125;SDS011;53956;52.442;13.284;2022-08-05T08:45:32;6.63;;;3.65;;
18125;SDS011;53956;52.442;13.284;2022-08-05T08:48:02;5.72;;;3.65;;
18125;SDS011;53956;52.442;13.284;2022-08-05T08:50:32;5.40;;;3.25;;
18125;SDS011;53956;52.442;13.284;2022-08-05T08:53:04;5.95;;;3.22;;
18125;SDS011;53956;52.442;13.284;2022-08-05T08:55:32;5.65;;;3.40;;
18125;SDS011;53956;52.442;13.284;2022-08-05T08:57:59;7.60;;;3.70;;
18125;SDS011;53956;52.442;13.284;2022-08-05T09:00:26;6.32;;;3.40;;
18125;SDS011;53956;52.442;13.284;2022-08-05T09:02:53;5.63;;;3.58;;
18125;SDS011;53956;52.442;13.284;2022-08-05T09:05:21;5.07;;;3.70;;
18125;SDS011;53956;52.442;13.284;2022-08-05T09:07:50;7.25;;;3.60;;
18125;SDS011;53956;52.442;13.284;2022-08-05T09:10:18;5.43;;;3.53;;
18125;SDS011;53956;52.442;13.284;2022-08-05T09:12:45;7.07;;;3.42;;
18125;SDS011;53956;52.442;13.284;2022-08-05T09:15:12;3.80;;;2.95;;
18125;SDS011;53956;52.442;13.284;2022-08-05T09:17:39;12.45;;;3.90;;
18125;SDS011;53956;52.442;13.284;2022-08-05T09:20:07;6.65;;;3.60;;
18125;SDS011;53956;52.442;13.284;2022-08-05T09:25:32;5.53;;;3.00;;
18125;SDS011;53956;52.442;13.284;2022-08-05T09:28:07;6.72;;;3.45;;
18125;SDS011;53956;52.442;13.284;2022-08-05T09:30:35;6.97;;;3.10;;
18125;SDS011;53956;52.442;13.284;2022-08-05T09:33:02;7.15;;;3.30;;
18125;SDS011;53956;52.442;13.284;2022-08-05T09:35:29;4.97;;;2.83;;
18125;SDS011;53956;52.442;13.284;2022-08-05T09:37:56;5.57;;;2.85;;
18125;SDS011;53956;52.442;13.284;2022-08-05T09:40:32;7.90;;;3.25;;
18125;SDS011;53956;52.442;13.284;2022-08-05T09:43:00;4.57;;;3.10;;
18125;SDS011;53956;52.442;13.284;2022-08-05T09:45:34;5.13;;;3.03;;
18125;SDS011;53956;52.442;13.284;2022-08-05T09:48:17;6.78;;;4.55;;
18125;SDS011;53956;52.442;13.284;2022-08-05T09:50:47;5.50;;;3.10;;
18125;SDS011;53956;52.442;13.284;2022-08-05T09:53:15;4.47;;;2.90;;
18125;SDS011;53956;52.442;13.284;2022-08-05T09:55:43;9.18;;;3.08;;
18125;SDS011;53956;52.442;13.284;2022-08-05T09:58:10;4.60;;;2.80;;
18125;SDS011;53956;52.442;13.284;2022-08-05T10:00:38;6.03;;;2.63;;
18125;SDS011;53956;52.442;13.284;2022-08-05T10:03:07;5.28;;;3.03;;
18125;SDS011;53956;52.442;13.284;2022-08-05T10:05:35;2.92;;;2.60;;
18125;SDS011;53956;52.442;13.284;2022-08-05T10:08:03;6.43;;;3.00;;
18125;SDS011;53956;52.442;13.284;2022-08-05T10:10:35;4.43;;;3.00;;
18125;SDS011;53956;52.442;13.284;2022-08-05T10:13:04;4.03;;;3.00;;
18125;SDS011;53956;52.442;13.284;2022-08-05T10:15:32;4.20;;;3.15;;
18125;SDS011;53956;52.442;13.284;2022-08-05T10:18:02;4.05;;;2.95;;
18125;SDS011;53956;52.442;13.284;2022-08-05T10:20:33;3.55;;;3.20;;
18125;SDS011;53956;52.442;13.284;2022-08-05T10:23:02;5.00;;;3.20;;
18125;SDS011;53956;52.442;13.284;2022-08-05T10:25:29;5.43;;;2.95;;
18125;SDS011;53956;52.442;13.284;2022-08-05T10:27:56;5.75;;;2.72;;
18125;SDS011;53956;52.442;13.284;2022-08-05T10:30:25;3.90;;;2.67;;
18125;SDS011;53956;52.442;13.284;2022-08-05T10:32:52;5.70;;;3.00;;
18125;SDS011;53956;52.442;13.284;2022-08-05T10:35:20;8.43;;;3.08;;
18125;SDS011;53956;52.442;13.284;2022-08-05T10:37:46;4.18;;;2.92;;
18125;SDS011;53956;52.442;13.284;2022-08-05T10:40:15;5.32;;;3.22;;
18125;SDS011;53956;52.442;13.284;2022-08-05T10:42:49;6.38;;;3.75;;
18125;SDS011;53956;52.442;13.284;2022-08-05T10:45:26;5.68;;;3.30;;
18125;SDS011;53956;52.442;13.284;2022-08-05T10:47:54;6.43;;;3.38;;
18125;SDS011;53956;52.442;13.284;2022-08-05T10:50:21;6.72;;;3.55;;
18125;SDS011;53956;52.442;13.284;2022-08-05T10:52:48;5.78;;;3.40;;
18125;SDS011;53956;52.442;13.284;2022-08-05T10:55:21;6.50;;;3.70;;
18125;SDS011;53956;52.442;13.284;2022-08-05T10:57:48;4.07;;;3.47;;
18125;SDS011;53956;52.442;13.284;2022-08-05T11:00:35;7.60;;;4.25;;
18125;SDS011;53956;52.442;13.284;2022-08-05T11:03:09;6.22;;;4.15;;
18125;SDS011;53956;52.442;13.284;2022-08-05T11:05:39;8.65;;;4.40;;
18125;SDS011;53956;52.442;13.284;2022-08-05T11:08:06;6.75;;;4.32;;
18125;SDS011;53956;52.442;13.284;2022-08-05T11:10:35;8.00;;;4.55;;
18125;SDS011;53956;52.442;13.284;2022-08-05T11:13:03;9.75;;;4.90;;
18125;SDS011;53956;52.442;13.284;2022-08-05T11:15:32;12.73;;;7.88;;
18125;SDS011;53956;52.442;13.284;2022-08-05T11:18:07;14.75;;;8.98;;
18125;SDS011;53956;52.442;13.284;2022-08-05T11:20:48;23.70;;;12.95;;
18125;SDS011;53956;52.442;13.284;2022-08-05T11:23:24;24.85;;;14.90;;
18125;SDS011;53956;52.442;13.284;2022-08-05T11:26:07;22.02;;;14.45;;
18125;SDS011;53956;52.442;13.284;2022-08-05T11:28:38;27.58;;;18.05;;
18125;SDS011;53956;52.442;13.284;2022-08-05T11:31:22;31.00;;;17.60;;
18125;SDS011;53956;52.442;13.284;2022-08-05T11:33:57;27.92;;;16.42;;
18125;SDS011;53956;52.442;13.284;2022-08-05T11:36:42;24.10;;;14.30;;
18125;SDS011;53956;52.442;13.284;2022-08-05T11:39:12;25.45;;;14.07;;
18125;SDS011;53956;52.442;13.284;2022-08-05T11:41:40;14.25;;;9.00;;
18125;SDS011;53956;52.442;13.284;2022-08-05T11:44:08;10.20;;;6.25;;
18125;SDS011;53956;52.442;13.284;2022-08-05T11:46:38;9.43;;;6.00;;
18125;SDS011;53956;52.442;13.284;2022-08-05T11:49:09;7.22;;;4.63;;
18125;SDS011;53956;52.442;13.284;2022-08-05T11:51:39;5.70;;;3.97;;
18125;SDS011;53956;52.442;13.284;2022-08-05T11:54:07;8.98;;;4.43;;
18125;SDS011;53956;52.442;13.284;2022-08-05T11:56:42;7.20;;;4.75;;
18125;SDS011;53956;52.442;13.284;2022-08-05T11:59:16;6.53;;;3.88;;
18125;SDS011;53956;52.442;13.284;2022-08-05T12:01:51;6.70;;;4.28;;
18125;SDS011;53956;52.442;13.284;2022-08-05T12:04:20;5.45;;;4.03;;
18125;SDS011;53956;52.442;13.284;2022-08-05T12:06:46;8.10;;;3.60;;
18125;SDS011;53956;52.442;13.284;2022-08-05T12:09:15;7.25;;;3.17;;
18125;SDS011;53956;52.442;13.284;2022-08-05T12:11:45;4.05;;;2.65;;
18125;SDS011;53956;52.442;13.284;2022-08-05T12:14:12;5.05;;;2.75;;
18125;SDS011;53956;52.442;13.284;2022-08-05T12:16:39;2.97;;;2.50;;
18125;SDS011;53956;52.442;13.284;2022-08-05T12:19:08;4.88;;;2.55;;
18125;SDS011;53956;52.442;13.284;2022-08-05T12:21:42;2.97;;;2.20;;
18125;SDS011;53956;52.442;13.284;2022-08-05T12:24:11;4.25;;;2.30;;
18125;SDS011;53956;52.442;13.284;2022-08-05T12:26:40;5.28;;;2.20;;
18125;SDS011;53956;52.442;13.284;2022-08-05T12:29:10;4.57;;;2.17;;
18125;SDS011;53956;52.442;13.284;2022-08-05T12:31:38;5.25;;;2.70;;
18125;SDS011;53956;52.442;13.284;2022-08-05T12:34:08;3.05;;;2.47;;
18125;SDS011;53956;52.442;13.284;2022-08-05T12:36:36;4.72;;;2.42;;
18125;SDS011;53956;52.442;13.284;2022-08-05T12:39:05;4.32;;;2.85;;
18125;SDS011;53956;52.442;13.284;2022-08-05T12:41:32;4.07;;;2.60;;
18125;SDS011;53956;52.442;13.284;2022-08-05T12:44:01;2.80;;;2.20;;
18125;SDS011;53956;52.442;13.284;2022-08-05T12:46:30;3.35;;;2.35;;
18125;SDS011;53956;52.442;13.284;2022-08-05T12:48:59;4.07;;;2.40;;
18125;SDS011;53956;52.442;13.284;2022-08-05T12:51:27;3.17;;;2.30;;
18125;SDS011;53956;52.442;13.284;2022-08-05T12:53:59;4.07;;;2.50;;
18125;SDS011;53956;52.442;13.284;2022-08-05T12:56:29;3.92;;;2.60;;
18125;SDS011;53956;52.442;13.284;2022-08-05T12:59:15;4.30;;;2.70;;
18125;SDS011;53956;52.442;13.284;2022-08-05T13:01:43;4.45;;;2.78;;
18125;SDS011;53956;52.442;13.284;2022-08-05T13:04:17;4.63;;;2.83;;
18125;SDS011;53956;52.442;13.284;2022-08-05T13:06:44;3.63;;;2.58;;
18125;SDS011;53956;52.442;13.284;2022-08-05T13:09:12;4.55;;;2.70;;
18125;SDS011;53956;52.442;13.284;2022-08-05T13:11:41;6.13;;;2.97;;
18125;SDS011;53956;52.442;13.284;2022-08-05T13:14:09;4.03;;;2.80;;
18125;SDS011;53956;52.442;13.284;2022-08-05T13:16:45;4.53;;;2.80;;
18125;SDS011;53956;52.442;13.284;2022-08-05T13:19:16;6.78;;;3.05;;
18125;SDS011;53956;52.442;13.284;2022-08-05T13:21:44;4.25;;;3.13;;
18125;SDS011;53956;52.442;13.284;2022-08-05T13:24:12;4.20;;;2.90;;
18125;SDS011;53956;52.442;13.284;2022-08-05T13:26:40;4.35;;;2.78;;
18125;SDS011;53956;52.442;13.284;2022-08-05T13:29:07;4.07;;;2.70;;
18125;SDS011;53956;52.442;13.284;2022-08-05T13:31:34;4.05;;;2.80;;
18125;SDS011;53956;52.442;13.284;2022-08-05T13:34:01;3.00;;;2.70;;
18125;SDS011;53956;52.442;13.284;2022-08-05T13:36:27;4.03;;;2.55;;
18125;SDS011;53956;52.442;13.284;2022-08-05T13:38:54;3.22;;;2.75;;
18125;SDS011;53956;52.442;13.284;2022-08-05T13:41:21;4.47;;;2.80;;
18125;SDS011;53956;52.442;13.284;2022-08-05T13:43:49;4.53;;;2.88;;
18125;SDS011;53956;52.442;13.284;2022-08-05T13:46:15;3.42;;;2.75;;
18125;SDS011;53956;52.442;13.284;2022-08-05T13:48:42;3.90;;;3.00;;
18125;SDS011;53956;52.442;13.284;2022-08-05T13:51:09;4.90;;;2.60;;
18125;SDS011;53956;52.442;13.284;2022-08-05T13:53:37;4.57;;;2.97;;
18125;SDS011;53956;52.442;13.284;2022-08-05T13:56:04;4.32;;;2.78;;
18125;SDS011;53956;52.442;13.284;2022-08-05T13:58:31;2.90;;;2.58;;
18125;SDS011;53956;52.442;13.284;2022-08-05T14:00:59;3.97;;;2.67;;
18125;SDS011;53956;52.442;13.284;2022-08-05T14:03:26;3.30;;;2.92;;
18125;SDS011;53956;52.442;13.284;2022-08-05T14:05:53;4.80;;;2.80;;
18125;SDS011;53956;52.442;13.284;2022-08-05T14:08:19;3.83;;;2.92;;
18125;SDS011;53956;52.442;13.284;2022-08-05T14:10:46;5.22;;;2.67;;
18125;SDS011;53956;52.442;13.284;2022-08-05T14:13:13;6.25;;;2.80;;
18125;SDS011;53956;52.442;13.284;2022-08-05T14:15:39;3.30;;;2.53;;
18125;SDS011;53956;52.442;13.284;2022-08-05T14:18:07;6.15;;;2.75;;
18125;SDS011;53956;52.442;13.284;2022-08-05T14:20:34;2.88;;;2.63;;
18125;SDS011;53956;52.442;13.284;2022-08-05T14:23:01;5.60;;;3.20;;
18125;SDS011;53956;52.442;13.284;2022-08-05T14:25:27;2.78;;;2.53;;
18125;SDS011;53956;52.442;13.284;2022-08-05T14:27:54;3.15;;;2.50;;
18125;SDS011;53956;52.442;13.284;2022-08-05T14:30:21;5.45;;;2.90;;
18125;SDS011;53956;52.442;13.284;2022-08-05T14:32:49;4.13;;;2.80;;
18125;SDS011;53956;52.442;13.284;2022-08-05T14:35:17;6.80;;;3.03;;
18125;SDS011;53956;52.442;13.284;2022-08-05T14:37:43;3.83;;;2.90;;
18125;SDS011;53956;52.442;13.284;2022-08-05T14:40:10;4.82;;;3.05;;
18125;SDS011;53956;52.442;13.284;2022-08-05T14:42:38;3.78;;;3.13;;